Time;durP1;ratioP1;P1;durP2;ratioP2;P2;SDS_P1;SDS_P2;PMS_P1;PMS_P2;Temp;Humidity;BMP_temperature;BMP_pressure;BME280_temperature;BME280_humidity;BME280_pressure;Samples;Min_cycle;Max_cycle;Signal;HPM_P1;HPM_P2
2022/10/01 00:01:13;;;;;;;;;;;;;;;21.19;60.14;99709.66;7277117;19;154169;-60
2022/10/01 00:03:41;;;;;;;;;;;;;;;21.19;59.35;99706.84;7280753;19;153866;-62
2022/10/01 00:06:12;;;;;;;;;;;;;;;21.17;59.73;99715.59;7280805;19;154535;-59
2022/10/01 00:08:40;;;;;;;;;;;;;;;21.17;59.19;99715.59;7276793;19;153361;-58
2022/10/01 00:11:08;;;;;;;;;;;;;;;21.17;59.64;99717.59;7288264;19;152362;-59
2022/10/01 00:13:37;;;;;;;;;;;;;;;21.17;59.00;99723.22;7292473;19;152467;-60
2022/10/01 00:16:06;;;;;;;;;;;;;;;21.15;59.30;99723.56;7284790;19;152152;-61
2022/10/01 00:18:37;;;;;;;;;;;;;;;21.20;59.55;99728.16;7283923;19;152016;-60
2022/10/01 00:21:10;;;;;;;;;;;;;;;21.19;59.73;99741.38;7283135;19;154023;-60
2022/10/01 00:23:37;;;;;;;;;;;;;;;21.16;59.02;99738.44;7282532;19;152249;-60
2022/10/01 00:26:10;;;;;;;;;;;;;;;21.19;59.76;99743.38;7286826;19;153533;-59
2022/10/01 00:28:37;;;;;;;;;;;;;;;21.15;60.52;99746.03;7283622;19;152386;-59
2022/10/01 00:31:05;;;;;;;;;;;;;;;21.15;60.46;99748.03;7286361;19;152068;-59
2022/10/01 00:33:32;;;;;;;;;;;;;;;21.17;59.68;99746.50;7286413;19;152772;-60
2022/10/01 00:35:59;;;;;;;;;;;;;;;21.16;59.61;99744.88;7292691;19;152269;-59
2022/10/01 00:38:28;;;;;;;;;;;;;;;21.15;59.90;99746.03;7285193;19;152626;-60
2022/10/01 00:40:54;;;;;;;;;;;;;;;21.15;59.99;99751.66;7285071;19;152630;-59
2022/10/01 00:43:22;;;;;;;;;;;;;;;21.14;60.38;99757.63;7286474;19;152004;-60
2022/10/01 00:45:50;;;;;;;;;;;;;;;21.15;59.83;99762.91;7285474;19;152670;-60
2022/10/01 00:48:16;;;;;;;;;;;;;;;21.15;59.50;99759.25;7283921;19;153934;-58
2022/10/01 00:50:44;;;;;;;;;;;;;;;21.15;59.58;99771.31;7284358;19;153584;-58
2022/10/01 00:53:17;;;;;;;;;;;;;;;21.14;59.61;99772.47;7285744;19;155023;-59
2022/10/01 00:55:50;;;;;;;;;;;;;;;21.15;59.55;99774.13;7289967;19;154810;-59
2022/10/01 00:58:19;;;;;;;;;;;;;;;21.15;59.32;99762.06;7283795;19;152362;-58
2022/10/01 01:00:50;;;;;;;;;;;;;;;21.15;59.53;99778.94;7282536;19;154350;-57
2022/10/01 01:03:17;;;;;;;;;;;;;;;21.13;59.33;99779.25;7283888;19;151666;-58
2022/10/01 01:05:45;;;;;;;;;;;;;;;21.12;59.65;99777.56;7284865;19;153981;-58
2022/10/01 01:08:11;;;;;;;;;;;;;;;21.12;59.61;99780.38;7284738;19;153458;-58
2022/10/01 01:10:58;;;;;;;;;;;;;;;21.12;59.72;99779.59;7283305;19;152523;-58
2022/10/01 01:13:33;;;;;;;;;;;;;;;21.10;59.81;99776.28;7282402;19;153678;-59
2022/10/01 01:16:01;;;;;;;;;;;;;;;21.10;59.50;99779.91;7283847;19;153941;-58
2022/10/01 01:18:40;;;;;;;;;;;;;;;21.10;59.89;99787.50;7288272;19;153431;-58
2022/10/01 01:21:20;;;;;;;;;;;;;;;21.08;59.81;99790.66;7281884;19;153871;-58
2022/10/01 01:24:06;;;;;;;;;;;;;;;21.07;59.59;99791.00;7283484;19;152030;-58
2022/10/01 01:26:48;;;;;;;;;;;;;;;21.07;59.58;99793.81;7284433;19;153703;-58
2022/10/01 01:29:26;;;;;;;;;;;;;;;21.07;59.74;99793.81;7282303;19;152706;-58
2022/10/01 01:31:57;;;;;;;;;;;;;;;21.07;60.20;99805.06;7284208;19;151933;-58
2022/10/01 01:34:27;;;;;;;;;;;;;;;21.06;59.61;99801.44;7282757;19;153732;-58
2022/10/01 01:37:00;;;;;;;;;;;;;;;21.05;59.41;99808.19;7284672;19;153932;-58
2022/10/01 01:39:28;;;;;;;;;;;;;;;21.06;59.42;99814.63;7275363;19;153136;-58
2022/10/01 01:42:00;;;;;;;;;;;;;;;21.05;59.71;99821.41;7291443;19;153501;-58
2022/10/01 01:44:30;;;;;;;;;;;;;;;21.04;59.85;99825.38;7283883;19;152339;-59
2022/10/01 01:46:57;;;;;;;;;;;;;;;21.03;59.70;99827.34;7284590;19;153786;-59
2022/10/01 01:49:24;;;;;;;;;;;;;;;21.03;59.80;99821.75;7281945;19;153987;-58
2022/10/01 01:51:55;;;;;;;;;;;;;;;21.02;59.79;99833.34;7285651;19;152175;-58
2022/10/01 01:54:21;;;;;;;;;;;;;;;21.01;60.04;99835.31;7280234;19;153762;-58
2022/10/01 01:56:49;;;;;;;;;;;;;;;21.01;60.15;99834.50;7283335;19;153808;-58
2022/10/01 01:59:18;;;;;;;;;;;;;;;21.00;59.89;99844.06;7280169;19;152149;-58
2022/10/01 02:01:45;;;;;;;;;;;;;;;20.98;60.20;99833.19;7282341;19;153280;-57
2022/10/01 02:04:27;;;;;;;;;;;;;;;20.98;59.88;99843.59;7288073;19;153967;-56
2022/10/01 02:07:15;;;;;;;;;;;;;;;20.98;59.51;99843.59;7284604;19;153701;-57
2022/10/01 02:10:00;;;;;;;;;;;;;;;20.97;59.64;99854.00;7280822;19;153672;-57
2022/10/01 02:12:39;;;;;;;;;;;;;;;20.97;60.23;99853.19;7284496;19;153493;-56
2022/10/01 02:15:05;;;;;;;;;;;;;;;20.95;59.79;99847.91;7282921;19;153424;-57
2022/10/01 02:17:49;;;;;;;;;;;;;;;20.95;60.00;99856.31;7281794;19;154090;-57
2022/10/01 02:20:20;;;;;;;;;;;;;;;20.96;60.28;99857.16;7283819;19;151964;-60
2022/10/01 02:22:57;;;;;;;;;;;;;;;20.95;59.83;99850.69;7284732;19;154223;-57
2022/10/01 02:25:26;;;;;;;;;;;;;;;20.95;59.85;99852.69;7280094;19;153861;-59
2022/10/01 02:27:54;;;;;;;;;;;;;;;20.94;60.08;99853.88;7290808;19;152350;-59
2022/10/01 02:30:21;;;;;;;;;;;;;;;20.92;59.80;99851.38;7280760;19;153325;-59
2022/10/01 02:32:48;;;;;;;;;;;;;;;20.92;59.99;99854.19;7280917;19;151912;-60
2022/10/01 02:35:17;;;;;;;;;;;;;;;20.92;59.87;99847.75;7280584;19;153722;-59
2022/10/01 02:37:46;;;;;;;;;;;;;;;20.91;60.12;99858.16;7283544;19;153642;-59
2022/10/01 02:40:15;;;;;;;;;;;;;;;20.91;60.19;99857.34;7278489;19;152535;-57
2022/10/01 02:42:47;;;;;;;;;;;;;;;20.91;59.96;99860.13;7282629;19;152434;-57
2022/10/01 02:45:17;;;;;;;;;;;;;;;20.90;60.43;99858.47;7280181;19;153256;-57
2022/10/01 02:47:46;;;;;;;;;;;;;;;20.89;60.14;99862.47;7290799;19;151802;-57
2022/10/01 02:50:14;;;;;;;;;;;;;;;20.89;60.22;99873.72;7280032;19;154315;-57
2022/10/01 02:52:51;;;;;;;;;;;;;;;20.89;60.18;99879.31;7282683;19;153162;-57
2022/10/01 02:55:21;;;;;;;;;;;;;;;20.88;60.09;99874.88;7280765;19;153326;-57
2022/10/01 02:57:48;;;;;;;;;;;;;;;20.87;60.08;99874.03;7281817;19;153513;-57
2022/10/01 03:00:20;;;;;;;;;;;;;;;20.86;60.11;99870.41;7277324;19;152212;-57
2022/10/01 03:02:47;;;;;;;;;;;;;;;20.85;60.32;99871.56;7281415;19;153178;-57
2022/10/01 03:05:14;;;;;;;;;;;;;;;20.84;60.13;99869.94;7279040;19;155792;-57
2022/10/01 03:07:42;;;;;;;;;;;;;;;20.83;60.21;99870.25;7280802;19;152870;-57
2022/10/01 03:10:09;;;;;;;;;;;;;;;20.83;60.42;99879.50;7286432;19;154651;-58
2022/10/01 03:12:36;;;;;;;;;;;;;;;20.82;60.69;99880.66;7281919;19;152280;-58
2022/10/01 03:15:03;;;;;;;;;;;;;;;20.82;60.69;99880.66;7281525;19;152715;-58
2022/10/01 03:17:30;;;;;;;;;;;;;;;20.81;60.69;99890.25;7280564;19;153344;-58
2022/10/01 03:19:57;;;;;;;;;;;;;;;20.81;60.53;99887.44;7278163;19;152787;-58
2022/10/01 03:22:23;;;;;;;;;;;;;;;20.81;60.50;99907.09;7281429;19;155066;-59
2022/10/01 03:24:51;;;;;;;;;;;;;;;20.81;60.55;99906.25;7279449;19;153436;-58
2022/10/01 03:27:18;;;;;;;;;;;;;;;20.80;60.52;99901.81;7282015;19;153421;-58
2022/10/01 03:29:45;;;;;;;;;;;;;;;20.79;60.21;99905.78;7281905;19;152921;-58
2022/10/01 03:32:12;;;;;;;;;;;;;;;20.79;60.13;99914.19;7287440;19;154048;-57
2022/10/01 03:34:39;;;;;;;;;;;;;;;20.77;60.23;99911.72;7280372;19;152684;-57
2022/10/01 03:37:05;;;;;;;;;;;;;;;20.77;60.39;99931.38;7279748;19;154243;-58
2022/10/01 03:39:33;;;;;;;;;;;;;;;20.78;60.25;99935.00;7276752;19;152166;-58
2022/10/01 03:41:59;;;;;;;;;;;;;;;20.77;60.73;99936.97;7282196;19;154396;-59
2022/10/01 03:44:27;;;;;;;;;;;;;;;20.76;60.33;99946.56;7281740;19;154322;-58
2022/10/01 03:46:54;;;;;;;;;;;;;;;20.75;60.20;99953.34;7288301;19;152136;-58
2022/10/01 03:49:20;;;;;;;;;;;;;;;20.76;60.21;99959.78;7286568;19;152611;-58
2022/10/01 03:51:47;;;;;;;;;;;;;;;20.74;60.38;99957.31;7287724;19;154239;-58
2022/10/01 03:54:14;;;;;;;;;;;;;;;20.75;60.35;99969.38;7293917;19;152123;-58
2022/10/01 03:56:41;;;;;;;;;;;;;;;20.73;60.23;99975.31;7287559;19;154088;-58
2022/10/01 03:59:11;;;;;;;;;;;;;;;20.72;60.72;99976.47;7286180;19;151989;-57
2022/10/01 04:01:38;;;;;;;;;;;;;;;20.73;60.74;99980.94;7286679;19;153406;-58
2022/10/01 04:04:05;;;;;;;;;;;;;;;20.71;60.41;99986.06;7285834;19;154414;-58
2022/10/01 04:06:32;;;;;;;;;;;;;;;20.70;60.46;99978.78;7287257;19;153473;-57
2022/10/01 04:08:59;;;;;;;;;;;;;;;20.71;60.32;99986.06;7284206;19;152965;-57
2022/10/01 04:11:25;;;;;;;;;;;;;;;20.70;60.63;99992.84;7286376;19;154643;-57
2022/10/01 04:13:52;;;;;;;;;;;;;;;20.69;60.73;100004.38;7286262;19;152724;-58
2022/10/01 04:16:19;;;;;;;;;;;;;;;20.68;60.76;100006.34;7292309;19;152895;-58
2022/10/01 04:18:46;;;;;;;;;;;;;;;20.68;60.43;100005.53;7283177;19;152344;-57
2022/10/01 04:21:14;;;;;;;;;;;;;;;20.67;60.68;100010.31;7286770;19;153083;-58
2022/10/01 04:23:41;;;;;;;;;;;;;;;20.67;60.49;100015.94;7284853;19;154380;-57
2022/10/01 04:26:08;;;;;;;;;;;;;;;20.66;60.37;100014.31;7286090;19;153617;-58
2022/10/01 04:28:34;;;;;;;;;;;;;;;20.66;60.23;100017.09;7286681;19;154636;-57
2022/10/01 04:33:49;;;;;;;;;;;;;;;20.65;60.51;100018.25;7285852;19;153287;-58
2022/10/01 04:36:16;;;;;;;;;;;;;;;20.64;60.56;100018.59;7286441;19;153609;-58
2022/10/01 04:38:43;;;;;;;;;;;;;;;20.64;60.40;100019.41;7292217;19;152292;-57
2022/10/01 04:41:10;;;;;;;;;;;;;;;20.62;60.41;100024.53;7286545;19;153639;-58
2022/10/01 04:43:36;;;;;;;;;;;;;;;20.63;60.58;100022.53;7284764;19;154651;-57
2022/10/01 04:46:03;;;;;;;;;;;;;;;20.62;60.10;100021.75;7286058;19;152001;-58
2022/10/01 04:48:29;;;;;;;;;;;;;;;20.63;60.31;100026.16;7284928;19;154133;-57
2022/10/01 04:50:56;;;;;;;;;;;;;;;20.61;60.53;100028.50;7284865;19;153217;-57
2022/10/01 04:53:23;;;;;;;;;;;;;;;20.59;60.50;100042.03;7286758;19;154770;-57
2022/10/01 04:55:49;;;;;;;;;;;;;;;20.59;60.18;100049.63;7284232;19;152713;-57
2022/10/01 04:58:17;;;;;;;;;;;;;;;20.59;60.41;100058.03;7293145;19;154457;-58
2022/10/01 05:00:44;;;;;;;;;;;;;;;20.57;60.12;100061.19;7283307;19;152886;-57
2022/10/01 05:03:15;;;;;;;;;;;;;;;20.57;60.27;100071.59;7284599;19;154820;-58
2022/10/01 05:05:42;;;;;;;;;;;;;;;20.56;60.00;100076.38;7284759;19;152679;-57
2022/10/01 05:08:09;;;;;;;;;;;;;;;20.56;60.32;100067.97;7285951;19;152868;-57
2022/10/01 05:10:36;;;;;;;;;;;;;;;20.55;60.31;100071.91;7282712;19;154255;-57
2022/10/01 05:13:02;;;;;;;;;;;;;;;20.54;60.01;100067.44;7285087;19;152670;-58
2022/10/01 05:15:29;;;;;;;;;;;;;;;20.53;60.40;100068.63;7284906;19;153511;-58
2022/10/01 05:17:56;;;;;;;;;;;;;;;20.53;60.17;100067.81;7284748;19;152372;-58
2022/10/01 05:20:24;;;;;;;;;;;;;;;20.53;60.09;100082.66;7290966;19;152708;-58
2022/10/01 05:22:51;;;;;;;;;;;;;;;20.52;60.32;100082.97;7284339;19;152897;-57
2022/10/01 05:25:19;;;;;;;;;;;;;;;20.49;60.31;100084.44;7283322;19;152244;-58
2022/10/01 05:27:46;;;;;;;;;;;;;;;20.49;60.30;100098.47;7285861;19;152910;-57
2022/10/01 05:30:17;;;;;;;;;;;;;;;20.49;60.18;100097.69;7282085;19;154114;-58
2022/10/01 05:32:51;;;;;;;;;;;;;;;20.48;60.16;100101.63;7284885;19;151855;-57
2022/10/01 05:35:18;;;;;;;;;;;;;;;20.49;60.15;100103.28;7283794;19;153420;-58
2022/10/01 05:37:45;;;;;;;;;;;;;;;20.48;60.26;100116.50;7285213;19;153469;-58
2022/10/01 05:40:11;;;;;;;;;;;;;;;20.46;60.48;100110.38;7279683;19;152615;-58
2022/10/01 05:42:43;;;;;;;;;;;;;;;20.47;60.72;100128.88;7291401;19;152506;-58
2022/10/01 05:45:10;;;;;;;;;;;;;;;20.46;60.61;100138.44;7283464;19;155137;-57
2022/10/01 05:47:38;;;;;;;;;;;;;;;20.46;60.47;100135.63;7283048;19;153843;-58
2022/10/01 05:50:05;;;;;;;;;;;;;;;20.45;60.16;100138.75;7281907;19;154680;-57
2022/10/01 05:52:31;;;;;;;;;;;;;;;20.45;60.35;100135.94;7285116;19;152342;-58
2022/10/01 05:54:58;;;;;;;;;;;;;;;20.44;60.12;100149.16;7282304;19;152230;-58
2022/10/01 05:57:25;;;;;;;;;;;;;;;20.44;60.47;100151.97;7283241;19;153971;-58
2022/10/01 05:59:51;;;;;;;;;;;;;;;20.42;60.14;100154.28;7283268;19;152468;-59
2022/10/01 06:02:18;;;;;;;;;;;;;;;20.42;60.20;100160.72;7280325;19;153786;-58
2022/10/01 06:04:45;;;;;;;;;;;;;;;20.41;60.12;100161.03;7289415;19;154393;-58
2022/10/01 06:07:12;;;;;;;;;;;;;;;20.41;60.21;100170.28;7283092;19;153252;-58
2022/10/01 06:09:39;;;;;;;;;;;;;;;20.40;60.46;100165.81;7280978;19;154409;-58
2022/10/01 06:12:07;;;;;;;;;;;;;;;20.40;60.56;100170.59;7283761;19;152788;-58
2022/10/01 06:14:34;;;;;;;;;;;;;;;20.39;60.68;100181.00;7281189;19;153000;-58
2022/10/01 06:17:00;;;;;;;;;;;;;;;20.38;60.26;100178.53;7281997;19;154146;-58
2022/10/01 06:19:27;;;;;;;;;;;;;;;20.39;60.48;100180.19;7281448;19;152557;-58
2022/10/01 06:21:54;;;;;;;;;;;;;;;20.37;60.50;100186.13;7284286;19;152907;-58
2022/10/01 06:24:20;;;;;;;;;;;;;;;20.37;60.33;100193.69;7280349;19;154227;-58
2022/10/01 06:26:47;;;;;;;;;;;;;;;20.36;60.54;100194.84;7291255;19;153018;-57
2022/10/01 06:29:14;;;;;;;;;;;;;;;20.36;60.33;100195.69;7280805;19;154212;-60
2022/10/01 06:31:41;;;;;;;;;;;;;;;20.36;60.77;100195.69;7282858;19;152212;-57
2022/10/01 06:34:07;;;;;;;;;;;;;;;20.34;60.63;100200.81;7282057;19;152325;-57
2022/10/01 06:36:34;;;;;;;;;;;;;;;20.34;60.55;100209.22;7282066;19;153873;-57
2022/10/01 06:39:01;;;;;;;;;;;;;;;20.35;60.29;100215.66;7282210;19;153071;-57
2022/10/01 06:41:27;;;;;;;;;;;;;;;20.34;60.47;100211.19;7280449;19;156385;-59
2022/10/01 06:43:54;;;;;;;;;;;;;;;20.33;60.41;100229.16;7281457;19;153750;-57
2022/10/01 06:46:21;;;;;;;;;;;;;;;20.35;61.18;100224.88;7281491;19;152481;-56
2022/10/01 06:48:47;;;;;;;;;;;;;;;20.39;61.41;100223.09;7288946;19;153725;-57
2022/10/01 06:51:14;;;;;;;;;;;;;;;20.43;61.74;100228.88;7282312;19;152568;-57
2022/10/01 06:53:40;;;;;;;;;;;;;;;20.46;61.64;100222.59;7280920;19;152761;-57
2022/10/01 06:56:10;;;;;;;;;;;;;;;20.51;62.01;100238.47;7281014;19;154140;-57
2022/10/01 06:58:39;;;;;;;;;;;;;;;20.55;62.11;100239.47;7282370;19;152608;-57
2022/10/01 07:01:06;;;;;;;;;;;;;;;20.60;62.01;100247.75;7278796;19;153431;-58
2022/10/01 07:03:33;;;;;;;;;;;;;;;20.65;62.07;100262.47;7280932;19;153365;-58
2022/10/01 07:06:01;;;;;;;;;;;;;;;20.69;62.34;100251.41;7281717;19;152314;-58
2022/10/01 07:08:27;;;;;;;;;;;;;;;20.73;61.86;100267.25;7288671;19;153513;-58
2022/10/01 07:11:01;;;;;;;;;;;;;;;20.77;62.26;100262.66;7280713;19;153942;-57
2022/10/01 07:13:28;;;;;;;;;;;;;;;20.81;61.77;100274.03;7281506;19;153827;-57
2022/10/01 07:15:55;;;;;;;;;;;;;;;20.84;62.03;100265.81;7279847;19;153383;-57
2022/10/01 07:18:22;;;;;;;;;;;;;;;20.88;61.84;100274.41;7283294;19;152055;-59
2022/10/01 07:20:50;;;;;;;;;;;;;;;20.92;61.34;100268.97;7280444;19;155465;-57
2022/10/01 07:23:17;;;;;;;;;;;;;;;20.95;61.50;100274.75;7280962;19;154191;-57
2022/10/01 07:25:43;;;;;;;;;;;;;;;20.98;61.61;100271.28;7279504;19;153402;-57
2022/10/01 07:28:15;;;;;;;;;;;;;;;21.02;61.51;100274.25;7281858;19;153696;-57
2022/10/01 07:30:54;;;;;;;;;;;;;;;21.04;61.26;100286.81;7286821;19;153919;-58
2022/10/01 07:33:23;;;;;;;;;;;;;;;21.08;61.26;100286.97;7281536;19;153711;-58
2022/10/01 07:35:50;;;;;;;;;;;;;;;21.10;60.81;100295.91;7279943;19;154366;-58
2022/10/01 07:38:17;;;;;;;;;;;;;;;21.13;60.69;100303.72;7281578;19;151650;-58
2022/10/01 07:40:57;;;;;;;;;;;;;;;21.15;60.87;100298.59;7278254;19;152757;-61
2022/10/01 07:43:24;;;;;;;;;;;;;;;21.17;60.82;100311.16;7280105;19;153257;-58
2022/10/01 07:45:56;;;;;;;;;;;;;;;21.19;60.82;100308.03;7280815;19;151942;-58
2022/10/01 07:48:23;;;;;;;;;;;;;;;21.23;60.46;100307.03;7280688;19;153092;-57
2022/10/01 07:50:51;;;;;;;;;;;;;;;21.23;59.98;100311.81;7279311;19;154900;-57
2022/10/01 07:53:18;;;;;;;;;;;;;;;21.23;60.15;100320.25;7287834;19;152922;-57
2022/10/01 07:55:45;;;;;;;;;;;;;;;21.26;59.64;100330.81;7279271;19;153341;-57
2022/10/01 07:58:12;;;;;;;;;;;;;;;21.27;60.14;100326.88;7281083;19;152688;-58
2022/10/01 08:00:38;;;;;;;;;;;;;;;21.28;59.90;100334.97;7278143;19;154240;-57
2022/10/01 08:03:05;;;;;;;;;;;;;;;21.33;60.18;100335.97;7279608;19;153353;-57
2022/10/01 08:05:33;;;;;;;;;;;;;;;21.36;60.13;100344.56;7279907;19;153341;-57
2022/10/01 08:08:01;;;;;;;;;;;;;;;21.41;60.15;100347.22;7281638;19;152739;-57
2022/10/01 08:10:28;;;;;;;;;;;;;;;21.44;60.13;100343.75;7277605;19;154010;-57
2022/10/01 08:13:07;;;;;;;;;;;;;;;21.48;60.62;100350.38;7279857;19;151984;-57
2022/10/01 08:15:34;;;;;;;;;;;;;;;21.51;60.30;100349.72;7284307;19;153254;-57
2022/10/01 08:18:02;;;;;;;;;;;;;;;21.58;59.90;100360.44;7281012;19;152030;-57
2022/10/01 08:20:28;;;;;;;;;;;;;;;21.60;60.18;100352.53;7277884;19;153611;-57
2022/10/01 08:23:05;;;;;;;;;;;;;;;21.63;59.73;100352.69;7278063;19;154461;-57
2022/10/01 08:25:32;;;;;;;;;;;;;;;21.66;59.74;100363.28;7276816;19;152181;-57
2022/10/01 08:28:01;;;;;;;;;;;;;;;21.68;59.57;100363.78;7280208;19;152631;-57
2022/10/01 08:30:28;;;;;;;;;;;;;;;21.71;59.35;100362.31;7278971;19;153294;-57
2022/10/01 08:32:56;;;;;;;;;;;;;;;21.74;59.33;100370.06;7286286;19;152185;-57
2022/10/01 08:35:23;;;;;;;;;;;;;;;21.76;58.99;100373.34;7284952;19;153481;-57
2022/10/01 08:37:49;;;;;;;;;;;;;;;21.77;58.91;100386.28;7293286;19;154222;-57
2022/10/01 08:40:18;;;;;;;;;;;;;;;21.80;59.10;100390.41;7285288;19;152689;-57
2022/10/01 08:43:11;;;;;;;;;;;;;;;21.81;58.65;100400.50;7284778;19;153149;-57
2022/10/01 08:45:40;;;;;;;;;;;;;;;21.82;58.57;100388.91;7282142;19;152474;-57
2022/10/01 08:48:13;;;;;;;;;;;;;;;21.86;58.74;100405.94;7286636;19;154727;-57
2022/10/01 08:51:03;;;;;;;;;;;;;;;21.87;58.59;100400.00;7284082;19;154541;-57
2022/10/01 08:53:49;;;;;;;;;;;;;;;21.89;58.51;100405.31;7285934;19;152281;-58
2022/10/01 08:56:23;;;;;;;;;;;;;;;21.77;57.10;100402.31;7286596;19;154233;-56
2022/10/01 08:58:57;;;;;;;;;;;;;;;21.70;57.10;100409.28;7284289;19;154366;-60
2022/10/01 09:01:25;;;;;;;;;;;;;;;21.64;56.34;100409.75;7291245;19;153653;-58
2022/10/01 09:03:52;;;;;;;;;;;;;;;21.66;56.33;100418.69;7281603;19;153544;-59
2022/10/01 09:06:24;;;;;;;;;;;;;;;21.59;55.44;100423.97;7285898;19;153225;-58
2022/10/01 09:08:57;;;;;;;;;;;;;;;21.55;55.68;100426.59;7282194;19;154502;-58
2022/10/01 09:11:35;;;;;;;;;;;;;;;21.51;55.48;100436.84;7264538;19;154066;-58
2022/10/01 09:14:12;;;;;;;;;;;;;;;21.50;55.32;100428.75;7280373;19;153006;-58
2022/10/01 09:16:57;;;;;;;;;;;;;;;21.47;54.45;100423.78;7285841;19;153239;-58
2022/10/01 09:19:36;;;;;;;;;;;;;;;21.54;55.04;100419.31;7281419;19;153365;-58
2022/10/01 09:22:11;;;;;;;;;;;;;;;21.48;54.38;100439.50;7289898;19;152150;-59
2022/10/01 09:24:49;;;;;;;;;;;;;;;21.41;54.22;100439.13;7281786;19;155535;-58
2022/10/01 09:27:17;;;;;;;;;;;;;;;21.36;54.14;100450.53;7284466;19;152090;-59
2022/10/01 09:29:51;;;;;;;;;;;;;;;21.34;54.29;100455.66;7285138;19;153413;-58
2022/10/01 09:32:20;;;;;;;;;;;;;;;21.39;54.48;100463.94;7280512;19;155550;-59
2022/10/01 09:34:47;;;;;;;;;;;;;;;21.41;54.79;100476.50;7284060;19;152508;-64
2022/10/01 09:37:14;;;;;;;;;;;;;;;21.42;54.78;100460.47;7285859;19;153359;-60
2022/10/01 09:39:45;;;;;;;;;;;;;;;21.41;54.36;100470.88;7282420;19;153313;-60
2022/10/01 09:42:12;;;;;;;;;;;;;;;21.41;54.71;100476.50;7280899;19;152305;-60
2022/10/01 09:44:38;;;;;;;;;;;;;;;21.44;54.73;100480.66;7288284;19;153600;-60
2022/10/01 09:47:19;;;;;;;;;;;;;;;21.47;54.52;100477.19;7285248;19;152551;-60
2022/10/01 09:49:47;;;;;;;;;;;;;;;21.47;54.44;100478.03;7283070;19;152695;-60
2022/10/01 09:52:14;;;;;;;;;;;;;;;21.50;54.87;100477.34;7282865;19;153105;-60
2022/10/01 09:54:54;;;;;;;;;;;;;;;21.55;55.02;100482.84;7281780;19;152643;-60
2022/10/01 09:57:27;;;;;;;;;;;;;;;21.60;54.94;100479.88;7285080;19;153726;-60
2022/10/01 10:00:08;;;;;;;;;;;;;;;21.67;54.77;100482.19;7280090;19;154083;-60
2022/10/01 10:02:42;;;;;;;;;;;;;;;21.71;55.05;100472.75;7229337;19;155829;-60
2022/10/01 10:05:16;;;;;;;;;;;;;;;21.78;54.81;100479.91;7277602;19;153383;-60
2022/10/01 10:07:44;;;;;;;;;;;;;;;21.81;54.43;100487.66;7284617;19;154576;-60
2022/10/01 10:10:23;;;;;;;;;;;;;;;21.86;54.72;100491.16;7275298;19;152827;-60
2022/10/01 10:13:03;;;;;;;;;;;;;;;21.91;54.60;100498.63;7273252;19;154690;-59
2022/10/01 10:15:31;;;;;;;;;;;;;;;21.93;54.65;100490.72;7271492;19;152832;-59
2022/10/01 10:18:10;;;;;;;;;;;;;;;21.97;53.98;100497.34;7277131;19;153195;-59
2022/10/01 10:20:47;;;;;;;;;;;;;;;22.00;54.05;100491.88;7274985;19;154669;-59
2022/10/01 10:23:26;;;;;;;;;;;;;;;22.03;53.92;100491.22;7276774;19;151998;-59
2022/10/01 10:25:53;;;;;;;;;;;;;;;22.06;53.76;100499.00;7276816;19;152697;-59
2022/10/01 10:28:22;;;;;;;;;;;;;;;22.08;53.76;100495.84;7276656;19;154546;-59
2022/10/01 10:30:56;;;;;;;;;;;;;;;22.11;53.97;100500.84;7285225;19;152182;-59
2022/10/01 10:33:25;;;;;;;;;;;;;;;22.16;54.02;100495.03;7275618;19;154812;-59
2022/10/01 10:36:02;;;;;;;;;;;;;;;22.18;53.99;100503.97;7276398;19;152807;-59
2022/10/01 10:38:33;;;;;;;;;;;;;;;22.21;54.23;100511.78;7275104;19;153448;-59
2022/10/01 10:41:00;;;;;;;;;;;;;;;22.26;53.82;100513.59;7274303;19;153543;-59
2022/10/01 10:43:30;;;;;;;;;;;;;;;22.32;53.76;100518.72;7276205;19;152471;-59
2022/10/01 10:45:57;;;;;;;;;;;;;;;22.30;53.38;100523.84;7276401;19;152782;-59
2022/10/01 10:48:28;;;;;;;;;;;;;;;22.30;53.61;100514.59;7274974;19;153598;-60
2022/10/01 10:51:00;;;;;;;;;;;;;;;22.31;53.08;100522.69;7282883;19;153124;-59
2022/10/01 10:53:30;;;;;;;;;;;;;;;22.30;53.09;100526.66;7287680;19;152729;-60
2022/10/01 10:56:01;;;;;;;;;;;;;;;22.30;53.09;100532.31;7281701;19;153089;-59
2022/10/01 10:58:29;;;;;;;;;;;;;;;22.43;53.72;100534.13;7282050;19;153191;-62
2022/10/01 11:00:59;;;;;;;;;;;;;;;22.54;53.41;100535.44;7279089;19;153406;-59
2022/10/01 11:03:28;;;;;;;;;;;;;;;22.64;53.09;100534.25;7278766;19;152941;-60
2022/10/01 11:05:58;;;;;;;;;;;;;;;22.72;52.73;100546.69;7279354;19;152633;-60
2022/10/01 11:08:27;;;;;;;;;;;;;;;22.70;52.53;100561.13;7276897;19;154157;-60
2022/10/01 11:11:05;;;;;;;;;;;;;;;22.72;51.51;100563.59;7274625;19;153166;-60
2022/10/01 11:13:38;;;;;;;;;;;;;;;22.69;51.39;100558.59;7280235;19;153841;-60
2022/10/01 11:16:23;;;;;;;;;;;;;;;22.65;51.61;100557.63;7284128;19;152355;-60
2022/10/01 11:19:00;;;;;;;;;;;;;;;22.63;51.38;100555.13;7280720;19;152862;-61
2022/10/01 11:21:29;;;;;;;;;;;;;;;22.60;51.21;100551.00;7281585;19;153608;-60
2022/10/01 11:24:02;;;;;;;;;;;;;;;22.58;50.82;100558.94;7282047;19;152202;-60
2022/10/01 11:26:44;;;;;;;;;;;;;;;22.59;51.18;100571.88;7282784;19;152904;-60
2022/10/01 11:29:20;;;;;;;;;;;;;;;22.57;50.58;100556.47;7279746;19;152450;-60
2022/10/01 11:32:01;;;;;;;;;;;;;;;22.56;50.77;100571.72;7281362;19;152104;-60
2022/10/01 11:34:28;;;;;;;;;;;;;;;22.54;50.38;100563.59;7279755;19;152687;-60
2022/10/01 11:37:00;;;;;;;;;;;;;;;22.52;50.57;100563.09;7289356;19;153329;-60
2022/10/01 11:39:28;;;;;;;;;;;;;;;22.52;50.61;100573.53;7279252;19;153832;-60
2022/10/01 11:42:00;;;;;;;;;;;;;;;22.51;51.02;100585.94;7280555;19;153519;-60
2022/10/01 11:44:30;;;;;;;;;;;;;;;22.48;50.62;100584.63;7279179;19;152657;-60
2022/10/01 11:47:02;;;;;;;;;;;;;;;22.46;50.59;100584.13;7281363;19;152904;-60
2022/10/01 11:49:41;;;;;;;;;;;;;;;22.43;50.43;100586.78;7278364;19;155232;-60
2022/10/01 11:52:17;;;;;;;;;;;;;;;22.39;49.86;100592.25;7281125;19;153121;-61
2022/10/01 11:58:49;;;;;;;;;;;;;;;22.40;50.38;100593.88;7278347;19;153273;-60
2022/10/01 12:00:57;;;;;;;;;;;;;;;22.38;50.31;100592.56;7285739;19;152060;-60
2022/10/01 12:03:36;;;;;;;;;;;;;;;22.39;50.38;100609.13;7276154;19;154079;-60
2022/10/01 12:06:08;;;;;;;;;;;;;;;22.38;50.33;100609.47;7284181;19;152603;-60
2022/10/01 12:08:36;;;;;;;;;;;;;;;22.37;50.38;100613.41;7286814;19;153436;-60
2022/10/01 12:11:16;;;;;;;;;;;;;;;22.31;50.24;100609.94;7283621;19;154671;-60
2022/10/01 12:13:49;;;;;;;;;;;;;;;22.34;50.55;100609.28;7286671;19;152387;-60
2022/10/01 12:16:34;;;;;;;;;;;;;;;22.35;50.57;100608.13;7282748;19;154221;-60
2022/10/01 12:19:04;;;;;;;;;;;;;;;22.34;50.50;100609.28;7283369;19;154097;-60
2022/10/01 12:21:37;;;;;;;;;;;;;;;22.36;50.93;100601.34;7287820;19;152572;-60
2022/10/01 12:24:05;;;;;;;;;;;;;;;22.35;50.55;100605.28;7287115;19;153557;-60
2022/10/01 12:26:35;;;;;;;;;;;;;;;22.35;50.86;100594.03;7287871;19;153178;-60
2022/10/01 12:29:14;;;;;;;;;;;;;;;22.36;50.65;100618.22;7281824;19;152393;-60
2022/10/01 12:31:46;;;;;;;;;;;;;;;22.38;51.35;100615.09;7283769;19;153625;-60
2022/10/01 12:34:22;;;;;;;;;;;;;;;22.37;50.69;100611.44;7284550;19;153280;-60
2022/10/01 12:37:12;;;;;;;;;;;;;;;22.35;50.78;100618.56;7285727;19;154017;-60
2022/10/01 12:39:41;;;;;;;;;;;;;;;22.36;50.79;100621.03;7277347;19;154081;-60
2022/10/01 12:42:30;;;;;;;;;;;;;;;22.37;51.35;100636.78;7235217;19;157537;-60
2022/10/01 12:44:56;;;;;;;;;;;;;;;22.34;50.65;100629.00;7267263;19;153394;-61
2022/10/01 12:47:33;;;;;;;;;;;;;;;22.30;50.54;100635.63;7286464;19;154115;-60
2022/10/01 12:50:18;;;;;;;;;;;;;;;22.29;50.77;100628.31;7279639;19;152562;-59
2022/10/01 12:52:58;;;;;;;;;;;;;;;22.27;50.73;100639.06;7284390;19;153918;-60